sensor_id;sensor_type;location;lat;lon;timestamp;P1;durP1;ratioP1;P2;durP2;ratioP2
64826;SDS011;51265;53.972;12.286;2023-04-06T00:02:16;9.38;;;5.32;;
64826;SDS011;51265;53.972;12.286;2023-04-06T00:04:42;9.07;;;5.07;;
64826;SDS011;51265;53.972;12.286;2023-04-06T00:07:10;12.27;;;5.38;;
64826;SDS011;51265;53.972;12.286;2023-04-06T00:09:36;9.35;;;4.50;;
64826;SDS011;51265;53.972;12.286;2023-04-06T00:12:02;7.97;;;4.75;;
64826;SDS011;51265;53.972;12.286;2023-04-06T00:14:29;9.48;;;5.00;;
64826;SDS011;51265;53.972;12.286;2023-04-06T00:16:55;9.30;;;5.05;;
64826;SDS011;51265;53.972;12.286;2023-04-06T00:19:21;9.75;;;4.93;;
64826;SDS011;51265;53.972;12.286;2023-04-06T00:21:47;8.68;;;5.60;;
64826;SDS011;51265;53.972;12.286;2023-04-06T00:24:14;10.50;;;5.72;;
64826;SDS011;51265;53.972;12.286;2023-04-06T00:26:40;12.73;;;6.38;;
64826;SDS011;51265;53.972;12.286;2023-04-06T00:29:07;15.40;;;6.25;;
64826;SDS011;51265;53.972;12.286;2023-04-06T00:31:33;15.05;;;5.68;;
64826;SDS011;51265;53.972;12.286;2023-04-06T00:33:59;13.10;;;6.53;;
64826;SDS011;51265;53.972;12.286;2023-04-06T00:36:26;12.07;;;6.40;;
64826;SDS011;51265;53.972;12.286;2023-04-06T00:38:52;12.73;;;5.75;;
64826;SDS011;51265;53.972;12.286;2023-04-06T00:41:18;13.70;;;6.22;;
64826;SDS011;51265;53.972;12.286;2023-04-06T00:43:46;10.77;;;5.47;;
64826;SDS011;51265;53.972;12.286;2023-04-06T00:46:12;9.40;;;5.65;;
64826;SDS011;51265;53.972;12.286;2023-04-06T00:48:39;11.38;;;5.85;;
64826;SDS011;51265;53.972;12.286;2023-04-06T00:51:06;12.48;;;5.82;;
64826;SDS011;51265;53.972;12.286;2023-04-06T00:53:32;10.18;;;5.45;;
64826;SDS011;51265;53.972;12.286;2023-04-06T00:56:00;13.57;;;6.53;;
64826;SDS011;51265;53.972;12.286;2023-04-06T00:58:27;9.32;;;5.93;;
64826;SDS011;51265;53.972;12.286;2023-04-06T01:01:02;10.43;;;5.97;;
64826;SDS011;51265;53.972;12.286;2023-04-06T01:03:28;11.35;;;6.07;;
64826;SDS011;51265;53.972;12.286;2023-04-06T01:05:54;12.40;;;6.45;;
64826;SDS011;51265;53.972;12.286;2023-04-06T01:08:27;12.77;;;6.75;;
64826;SDS011;51265;53.972;12.286;2023-04-06T01:11:07;10.27;;;6.30;;
64826;SDS011;51265;53.972;12.286;2023-04-06T01:13:33;10.85;;;6.25;;
64826;SDS011;51265;53.972;12.286;2023-04-06T01:16:04;14.45;;;7.25;;
64826;SDS011;51265;53.972;12.286;2023-04-06T01:18:50;12.73;;;6.55;;
64826;SDS011;51265;53.972;12.286;2023-04-06T01:21:20;12.60;;;6.72;;
64826;SDS011;51265;53.972;12.286;2023-04-06T01:24:17;16.42;;;6.93;;
64826;SDS011;51265;53.972;12.286;2023-04-06T01:26:59;11.23;;;5.95;;
64826;SDS011;51265;53.972;12.286;2023-04-06T01:32:00;12.60;;;6.40;;
64826;SDS011;51265;53.972;12.286;2023-04-06T01:34:27;10.77;;;6.07;;
64826;SDS011;51265;53.972;12.286;2023-04-06T01:36:58;12.63;;;6.30;;
64826;SDS011;51265;53.972;12.286;2023-04-06T01:39:28;12.95;;;6.72;;
64826;SDS011;51265;53.972;12.286;2023-04-06T01:41:55;14.05;;;6.72;;
64826;SDS011;51265;53.972;12.286;2023-04-06T01:44:21;11.07;;;6.03;;
64826;SDS011;51265;53.972;12.286;2023-04-06T01:46:55;10.63;;;5.90;;
64826;SDS011;51265;53.972;12.286;2023-04-06T01:49:25;9.85;;;5.82;;
64826;SDS011;51265;53.972;12.286;2023-04-06T01:51:54;10.10;;;5.90;;
64826;SDS011;51265;53.972;12.286;2023-04-06T01:54:21;12.60;;;6.05;;
64826;SDS011;51265;53.972;12.286;2023-04-06T01:57:02;9.02;;;5.28;;
64826;SDS011;51265;53.972;12.286;2023-04-06T01:59:33;11.85;;;6.15;;
64826;SDS011;51265;53.972;12.286;2023-04-06T02:02:05;9.82;;;5.80;;
64826;SDS011;51265;53.972;12.286;2023-04-06T02:04:33;9.95;;;5.95;;
64826;SDS011;51265;53.972;12.286;2023-04-06T02:07:08;13.18;;;7.32;;
64826;SDS011;51265;53.972;12.286;2023-04-06T02:09:35;12.48;;;7.20;;
64826;SDS011;51265;53.972;12.286;2023-04-06T02:12:02;12.32;;;5.82;;
64826;SDS011;51265;53.972;12.286;2023-04-06T02:14:32;13.18;;;6.82;;
64826;SDS011;51265;53.972;12.286;2023-04-06T02:17:00;10.27;;;6.57;;
64826;SDS011;51265;53.972;12.286;2023-04-06T02:19:26;12.63;;;6.80;;
64826;SDS011;51265;53.972;12.286;2023-04-06T02:21:53;12.15;;;6.32;;
64826;SDS011;51265;53.972;12.286;2023-04-06T02:24:19;12.38;;;6.80;;
64826;SDS011;51265;53.972;12.286;2023-04-06T02:26:45;10.80;;;6.90;;
64826;SDS011;51265;53.972;12.286;2023-04-06T02:29:12;10.52;;;6.10;;
64826;SDS011;51265;53.972;12.286;2023-04-06T02:31:38;11.05;;;6.72;;
64826;SDS011;51265;53.972;12.286;2023-04-06T02:34:05;14.38;;;7.20;;
64826;SDS011;51265;53.972;12.286;2023-04-06T02:36:33;14.45;;;6.88;;
64826;SDS011;51265;53.972;12.286;2023-04-06T02:38:59;12.30;;;6.80;;
64826;SDS011;51265;53.972;12.286;2023-04-06T02:41:26;11.18;;;6.57;;
64826;SDS011;51265;53.972;12.286;2023-04-06T02:43:53;10.75;;;6.93;;
64826;SDS011;51265;53.972;12.286;2023-04-06T02:46:31;12.20;;;7.20;;
64826;SDS011;51265;53.972;12.286;2023-04-06T02:48:57;13.20;;;7.15;;
64826;SDS011;51265;53.972;12.286;2023-04-06T02:51:27;16.55;;;8.07;;
64826;SDS011;51265;53.972;12.286;2023-04-06T02:54:00;11.77;;;6.82;;
64826;SDS011;51265;53.972;12.286;2023-04-06T02:56:26;17.42;;;7.28;;
64826;SDS011;51265;53.972;12.286;2023-04-06T02:58:52;11.30;;;6.97;;
64826;SDS011;51265;53.972;12.286;2023-04-06T03:01:21;15.65;;;7.93;;
64826;SDS011;51265;53.972;12.286;2023-04-06T03:03:52;15.35;;;8.27;;
64826;SDS011;51265;53.972;12.286;2023-04-06T03:06:24;14.48;;;7.35;;
64826;SDS011;51265;53.972;12.286;2023-04-06T03:08:54;13.23;;;7.55;;
64826;SDS011;51265;53.972;12.286;2023-04-06T03:11:20;13.60;;;7.85;;
64826;SDS011;51265;53.972;12.286;2023-04-06T03:13:49;16.90;;;8.15;;
64826;SDS011;51265;53.972;12.286;2023-04-06T03:16:15;14.00;;;8.15;;
64826;SDS011;51265;53.972;12.286;2023-04-06T03:18:42;13.85;;;7.70;;
64826;SDS011;51265;53.972;12.286;2023-04-06T03:21:12;14.30;;;7.80;;
64826;SDS011;51265;53.972;12.286;2023-04-06T03:23:46;14.35;;;7.82;;
64826;SDS011;51265;53.972;12.286;2023-04-06T03:26:12;14.05;;;7.70;;
64826;SDS011;51265;53.972;12.286;2023-04-06T03:28:38;18.00;;;9.18;;
64826;SDS011;51265;53.972;12.286;2023-04-06T03:31:05;12.75;;;8.63;;
64826;SDS011;51265;53.972;12.286;2023-04-06T03:33:50;16.08;;;8.55;;
64826;SDS011;51265;53.972;12.286;2023-04-06T03:36:22;13.02;;;7.53;;
64826;SDS011;51265;53.972;12.286;2023-04-06T03:38:49;12.88;;;7.40;;
64826;SDS011;51265;53.972;12.286;2023-04-06T03:41:15;13.43;;;7.90;;
64826;SDS011;51265;53.972;12.286;2023-04-06T03:43:48;15.63;;;7.97;;
64826;SDS011;51265;53.972;12.286;2023-04-06T03:46:17;14.00;;;8.50;;
64826;SDS011;51265;53.972;12.286;2023-04-06T03:48:43;14.50;;;8.38;;
64826;SDS011;51265;53.972;12.286;2023-04-06T03:51:10;15.13;;;8.30;;
64826;SDS011;51265;53.972;12.286;2023-04-06T03:53:36;14.63;;;8.10;;
64826;SDS011;51265;53.972;12.286;2023-04-06T03:56:03;13.77;;;8.00;;
64826;SDS011;51265;53.972;12.286;2023-04-06T03:58:29;11.13;;;7.43;;
64826;SDS011;51265;53.972;12.286;2023-04-06T04:00:56;10.90;;;7.22;;
64826;SDS011;51265;53.972;12.286;2023-04-06T04:03:22;12.98;;;7.50;;
64826;SDS011;51265;53.972;12.286;2023-04-06T04:05:49;12.07;;;7.43;;
64826;SDS011;51265;53.972;12.286;2023-04-06T04:08:17;10.80;;;6.55;;
64826;SDS011;51265;53.972;12.286;2023-04-06T04:10:43;10.82;;;5.93;;
64826;SDS011;51265;53.972;12.286;2023-04-06T04:13:10;10.88;;;7.07;;
64826;SDS011;51265;53.972;12.286;2023-04-06T04:15:36;12.25;;;7.95;;
64826;SDS011;51265;53.972;12.286;2023-04-06T04:18:02;12.00;;;7.03;;
64826;SDS011;51265;53.972;12.286;2023-04-06T04:20:29;26.38;;;7.07;;
64826;SDS011;51265;53.972;12.286;2023-04-06T04:22:55;9.52;;;6.40;;
64826;SDS011;51265;53.972;12.286;2023-04-06T04:25:22;12.70;;;7.68;;
64826;SDS011;51265;53.972;12.286;2023-04-06T04:27:49;12.00;;;7.30;;
64826;SDS011;51265;53.972;12.286;2023-04-06T04:30:17;12.18;;;8.23;;
64826;SDS011;51265;53.972;12.286;2023-04-06T04:32:44;11.85;;;7.47;;
64826;SDS011;51265;53.972;12.286;2023-04-06T04:35:10;13.68;;;7.93;;
64826;SDS011;51265;53.972;12.286;2023-04-06T04:37:40;14.13;;;7.70;;
64826;SDS011;51265;53.972;12.286;2023-04-06T04:40:07;13.18;;;7.68;;
64826;SDS011;51265;53.972;12.286;2023-04-06T04:42:44;13.88;;;7.82;;
64826;SDS011;51265;53.972;12.286;2023-04-06T04:45:17;18.33;;;8.45;;
64826;SDS011;51265;53.972;12.286;2023-04-06T04:47:43;16.80;;;8.52;;
64826;SDS011;51265;53.972;12.286;2023-04-06T04:50:12;17.30;;;9.63;;
64826;SDS011;51265;53.972;12.286;2023-04-06T04:52:42;42.72;;;21.08;;
64826;SDS011;51265;53.972;12.286;2023-04-06T04:55:19;33.08;;;17.35;;
64826;SDS011;51265;53.972;12.286;2023-04-06T04:57:48;21.08;;;12.30;;
64826;SDS011;51265;53.972;12.286;2023-04-06T05:00:17;19.35;;;9.60;;
64826;SDS011;51265;53.972;12.286;2023-04-06T05:02:45;16.42;;;8.80;;
64826;SDS011;51265;53.972;12.286;2023-04-06T05:05:15;16.25;;;8.18;;
64826;SDS011;51265;53.972;12.286;2023-04-06T05:07:42;15.82;;;8.38;;
64826;SDS011;51265;53.972;12.286;2023-04-06T05:10:14;17.40;;;9.10;;
64826;SDS011;51265;53.972;12.286;2023-04-06T05:12:50;16.30;;;8.27;;
64826;SDS011;51265;53.972;12.286;2023-04-06T05:15:16;13.07;;;7.82;;
64826;SDS011;51265;53.972;12.286;2023-04-06T05:17:42;15.18;;;8.55;;
64826;SDS011;51265;53.972;12.286;2023-04-06T05:20:12;19.52;;;9.23;;
64826;SDS011;51265;53.972;12.286;2023-04-06T05:25:12;17.90;;;9.25;;
64826;SDS011;51265;53.972;12.286;2023-04-06T05:27:40;22.33;;;12.43;;
64826;SDS011;51265;53.972;12.286;2023-04-06T05:30:16;65.60;;;33.05;;
64826;SDS011;51265;53.972;12.286;2023-04-06T05:32:45;49.05;;;24.63;;
64826;SDS011;51265;53.972;12.286;2023-04-06T05:35:11;26.35;;;14.30;;
64826;SDS011;51265;53.972;12.286;2023-04-06T05:37:39;24.25;;;11.95;;
64826;SDS011;51265;53.972;12.286;2023-04-06T05:40:06;17.10;;;10.38;;
64826;SDS011;51265;53.972;12.286;2023-04-06T05:42:36;16.27;;;9.02;;
64826;SDS011;51265;53.972;12.286;2023-04-06T05:45:05;18.02;;;9.55;;
64826;SDS011;51265;53.972;12.286;2023-04-06T05:47:32;14.05;;;8.90;;
64826;SDS011;51265;53.972;12.286;2023-04-06T05:50:06;16.50;;;8.65;;
64826;SDS011;51265;53.972;12.286;2023-04-06T05:52:36;15.07;;;9.35;;
64826;SDS011;51265;53.972;12.286;2023-04-06T05:55:03;18.20;;;9.40;;
64826;SDS011;51265;53.972;12.286;2023-04-06T05:57:31;15.77;;;8.68;;
64826;SDS011;51265;53.972;12.286;2023-04-06T05:59:57;16.60;;;9.52;;
64826;SDS011;51265;53.972;12.286;2023-04-06T06:02:30;16.58;;;9.25;;
64826;SDS011;51265;53.972;12.286;2023-04-06T06:04:56;15.02;;;8.82;;
64826;SDS011;51265;53.972;12.286;2023-04-06T06:07:24;15.38;;;9.38;;
64826;SDS011;51265;53.972;12.286;2023-04-06T06:09:58;15.50;;;9.77;;
64826;SDS011;51265;53.972;12.286;2023-04-06T06:12:29;17.13;;;9.18;;
64826;SDS011;51265;53.972;12.286;2023-04-06T06:14:56;15.25;;;8.90;;
64826;SDS011;51265;53.972;12.286;2023-04-06T06:17:24;16.75;;;9.82;;
64826;SDS011;51265;53.972;12.286;2023-04-06T06:19:50;14.13;;;8.25;;
64826;SDS011;51265;53.972;12.286;2023-04-06T06:22:17;14.68;;;9.07;;
64826;SDS011;51265;53.972;12.286;2023-04-06T06:24:46;15.30;;;8.90;;
64826;SDS011;51265;53.972;12.286;2023-04-06T06:27:13;14.88;;;8.52;;
64826;SDS011;51265;53.972;12.286;2023-04-06T06:29:39;15.20;;;8.27;;
64826;SDS011;51265;53.972;12.286;2023-04-06T06:32:05;13.18;;;7.85;;
64826;SDS011;51265;53.972;12.286;2023-04-06T06:34:32;16.40;;;8.38;;
64826;SDS011;51265;53.972;12.286;2023-04-06T06:37:01;12.52;;;7.63;;
64826;SDS011;51265;53.972;12.286;2023-04-06T06:39:28;18.20;;;8.88;;
64826;SDS011;51265;53.972;12.286;2023-04-06T06:41:55;16.75;;;9.18;;
64826;SDS011;51265;53.972;12.286;2023-04-06T06:44:40;16.23;;;9.15;;
64826;SDS011;51265;53.972;12.286;2023-04-06T06:47:06;41.88;;;21.85;;
64826;SDS011;51265;53.972;12.286;2023-04-06T06:49:33;29.10;;;16.73;;
64826;SDS011;51265;53.972;12.286;2023-04-06T06:51:59;21.13;;;12.27;;
64826;SDS011;51265;53.972;12.286;2023-04-06T06:54:25;13.35;;;8.23;;
64826;SDS011;51265;53.972;12.286;2023-04-06T06:56:51;13.55;;;7.55;;
64826;SDS011;51265;53.972;12.286;2023-04-06T06:59:18;12.73;;;7.82;;
64826;SDS011;51265;53.972;12.286;2023-04-06T07:01:44;12.43;;;7.53;;
64826;SDS011;51265;53.972;12.286;2023-04-06T07:04:11;11.68;;;7.50;;
64826;SDS011;51265;53.972;12.286;2023-04-06T07:06:37;10.38;;;7.03;;
64826;SDS011;51265;53.972;12.286;2023-04-06T07:09:03;11.93;;;7.00;;
64826;SDS011;51265;53.972;12.286;2023-04-06T07:11:29;10.85;;;6.43;;
64826;SDS011;51265;53.972;12.286;2023-04-06T07:13:56;11.35;;;7.05;;
64826;SDS011;51265;53.972;12.286;2023-04-06T07:16:22;10.70;;;6.78;;
64826;SDS011;51265;53.972;12.286;2023-04-06T07:18:48;17.77;;;7.85;;
64826;SDS011;51265;53.972;12.286;2023-04-06T07:21:16;15.15;;;8.27;;
64826;SDS011;51265;53.972;12.286;2023-04-06T07:23:43;15.05;;;7.65;;
64826;SDS011;51265;53.972;12.286;2023-04-06T07:26:09;15.60;;;8.27;;
64826;SDS011;51265;53.972;12.286;2023-04-06T07:28:37;11.55;;;7.32;;
64826;SDS011;51265;53.972;12.286;2023-04-06T07:31:03;15.88;;;9.52;;
64826;SDS011;51265;53.972;12.286;2023-04-06T07:33:30;10.50;;;7.43;;
64826;SDS011;51265;53.972;12.286;2023-04-06T07:35:57;14.18;;;8.90;;
64826;SDS011;51265;53.972;12.286;2023-04-06T07:38:24;13.65;;;7.93;;
64826;SDS011;51265;53.972;12.286;2023-04-06T07:40:51;14.30;;;8.48;;
64826;SDS011;51265;53.972;12.286;2023-04-06T07:43:18;14.73;;;8.30;;
64826;SDS011;51265;53.972;12.286;2023-04-06T07:45:44;14.68;;;8.18;;
64826;SDS011;51265;53.972;12.286;2023-04-06T07:48:12;15.93;;;8.50;;
64826;SDS011;51265;53.972;12.286;2023-04-06T07:50:39;13.10;;;8.48;;
64826;SDS011;51265;53.972;12.286;2023-04-06T07:53:06;14.07;;;8.63;;
64826;SDS011;51265;53.972;12.286;2023-04-06T07:55:32;14.55;;;8.25;;
64826;SDS011;51265;53.972;12.286;2023-04-06T07:57:58;15.45;;;10.07;;
64826;SDS011;51265;53.972;12.286;2023-04-06T08:00:24;16.70;;;9.45;;
64826;SDS011;51265;53.972;12.286;2023-04-06T08:02:51;14.45;;;9.32;;
64826;SDS011;51265;53.972;12.286;2023-04-06T08:05:17;14.48;;;8.95;;
64826;SDS011;51265;53.972;12.286;2023-04-06T08:07:43;18.08;;;9.05;;
64826;SDS011;51265;53.972;12.286;2023-04-06T08:10:10;20.13;;;12.48;;
64826;SDS011;51265;53.972;12.286;2023-04-06T08:12:37;20.58;;;9.55;;
64826;SDS011;51265;53.972;12.286;2023-04-06T08:15:03;15.07;;;9.02;;
64826;SDS011;51265;53.972;12.286;2023-04-06T08:17:31;13.38;;;8.13;;
64826;SDS011;51265;53.972;12.286;2023-04-06T08:19:58;13.68;;;8.73;;
64826;SDS011;51265;53.972;12.286;2023-04-06T08:22:25;14.10;;;7.32;;
64826;SDS011;51265;53.972;12.286;2023-04-06T08:24:51;13.98;;;7.35;;
64826;SDS011;51265;53.972;12.286;2023-04-06T08:27:17;14.00;;;7.13;;
64826;SDS011;51265;53.972;12.286;2023-04-06T08:29:44;12.60;;;7.55;;
64826;SDS011;51265;53.972;12.286;2023-04-06T08:32:10;16.50;;;6.65;;
64826;SDS011;51265;53.972;12.286;2023-04-06T08:34:36;16.33;;;8.68;;
64826;SDS011;51265;53.972;12.286;2023-04-06T08:37:03;10.43;;;6.30;;
64826;SDS011;51265;53.972;12.286;2023-04-06T08:39:29;11.20;;;6.40;;
64826;SDS011;51265;53.972;12.286;2023-04-06T08:41:56;12.88;;;6.00;;
64826;SDS011;51265;53.972;12.286;2023-04-06T08:44:38;9.23;;;5.15;;
64826;SDS011;51265;53.972;12.286;2023-04-06T08:47:06;8.23;;;5.57;;
64826;SDS011;51265;53.972;12.286;2023-04-06T08:49:34;7.85;;;5.18;;
64826;SDS011;51265;53.972;12.286;2023-04-06T08:52:03;13.68;;;6.47;;
64826;SDS011;51265;53.972;12.286;2023-04-06T08:54:32;10.32;;;5.32;;
64826;SDS011;51265;53.972;12.286;2023-04-06T08:56:59;10.77;;;5.68;;
64826;SDS011;51265;53.972;12.286;2023-04-06T08:59:26;12.65;;;5.18;;
64826;SDS011;51265;53.972;12.286;2023-04-06T09:01:53;9.68;;;6.30;;
64826;SDS011;51265;53.972;12.286;2023-04-06T09:04:21;8.18;;;5.05;;
64826;SDS011;51265;53.972;12.286;2023-04-06T09:06:47;6.55;;;4.38;;
64826;SDS011;51265;53.972;12.286;2023-04-06T09:09:15;8.38;;;4.60;;
64826;SDS011;51265;53.972;12.286;2023-04-06T09:11:43;6.57;;;3.53;;
64826;SDS011;51265;53.972;12.286;2023-04-06T09:14:16;7.07;;;3.63;;
64826;SDS011;51265;53.972;12.286;2023-04-06T09:16:44;4.97;;;3.75;;
64826;SDS011;51265;53.972;12.286;2023-04-06T09:19:11;6.03;;;3.42;;
64826;SDS011;51265;53.972;12.286;2023-04-06T09:21:38;6.20;;;3.58;;
64826;SDS011;51265;53.972;12.286;2023-04-06T09:24:08;6.05;;;3.22;;
64826;SDS011;51265;53.972;12.286;2023-04-06T09:26:45;8.60;;;3.05;;
64826;SDS011;51265;53.972;12.286;2023-04-06T09:29:22;5.30;;;3.42;;
64826;SDS011;51265;53.972;12.286;2023-04-06T09:31:52;6.50;;;3.17;;
64826;SDS011;51265;53.972;12.286;2023-04-06T09:34:22;5.43;;;3.42;;
64826;SDS011;51265;53.972;12.286;2023-04-06T09:36:51;4.72;;;2.60;;
64826;SDS011;51265;53.972;12.286;2023-04-06T09:39:20;4.57;;;2.63;;
64826;SDS011;51265;53.972;12.286;2023-04-06T09:44:18;3.75;;;2.42;;
64826;SDS011;51265;53.972;12.286;2023-04-06T09:46:46;7.07;;;2.58;;
64826;SDS011;51265;53.972;12.286;2023-04-06T09:49:13;4.65;;;2.53;;
64826;SDS011;51265;53.972;12.286;2023-04-06T09:51:41;4.70;;;2.60;;
64826;SDS011;51265;53.972;12.286;2023-04-06T09:54:15;5.20;;;2.15;;
64826;SDS011;51265;53.972;12.286;2023-04-06T09:56:47;4.85;;;2.72;;
64826;SDS011;51265;53.972;12.286;2023-04-06T09:59:25;5.85;;;2.63;;
64826;SDS011;51265;53.972;12.286;2023-04-06T10:02:03;5.22;;;2.50;;
64826;SDS011;51265;53.972;12.286;2023-04-06T10:07:00;5.50;;;2.60;;
64826;SDS011;51265;53.972;12.286;2023-04-06T10:09:28;3.95;;;2.42;;
64826;SDS011;51265;53.972;12.286;2023-04-06T10:12:02;5.55;;;2.33;;
64826;SDS011;51265;53.972;12.286;2023-04-06T10:14:34;3.47;;;2.45;;
64826;SDS011;51265;53.972;12.286;2023-04-06T10:17:03;4.20;;;2.67;;
64826;SDS011;51265;53.972;12.286;2023-04-06T10:19:46;6.70;;;2.60;;
64826;SDS011;51265;53.972;12.286;2023-04-06T10:22:19;3.88;;;2.67;;
64826;SDS011;51265;53.972;12.286;2023-04-06T10:24:52;8.40;;;3.10;;
64826;SDS011;51265;53.972;12.286;2023-04-06T10:27:27;8.23;;;2.58;;
64826;SDS011;51265;53.972;12.286;2023-04-06T10:29:54;5.30;;;2.70;;
64826;SDS011;51265;53.972;12.286;2023-04-06T10:32:34;3.88;;;2.20;;
64826;SDS011;51265;53.972;12.286;2023-04-06T10:35:09;4.05;;;2.30;;
64826;SDS011;51265;53.972;12.286;2023-04-06T10:37:47;4.70;;;2.13;;
64826;SDS011;51265;53.972;12.286;2023-04-06T10:40:19;3.38;;;1.88;;
64826;SDS011;51265;53.972;12.286;2023-04-06T10:42:54;3.40;;;1.60;;
64826;SDS011;51265;53.972;12.286;2023-04-06T10:45:22;2.20;;;1.38;;
64826;SDS011;51265;53.972;12.286;2023-04-06T10:47:53;3.55;;;2.00;;
64826;SDS011;51265;53.972;12.286;2023-04-06T10:50:20;2.00;;;1.23;;
64826;SDS011;51265;53.972;12.286;2023-04-06T10:52:58;3.45;;;1.60;;
64826;SDS011;51265;53.972;12.286;2023-04-06T10:55:29;2.92;;;1.80;;
64826;SDS011;51265;53.972;12.286;2023-04-06T10:57:56;3.00;;;2.00;;
64826;SDS011;51265;53.972;12.286;2023-04-06T11:00:23;3.83;;;2.20;;
64826;SDS011;51265;53.972;12.286;2023-04-06T11:02:50;6.07;;;1.83;;
64826;SDS011;51265;53.972;12.286;2023-04-06T11:05:16;2.80;;;1.95;;
64826;SDS011;51265;53.972;12.286;2023-04-06T11:07:43;4.68;;;2.15;;
64826;SDS011;51265;53.972;12.286;2023-04-06T11:10:10;7.45;;;2.25;;
64826;SDS011;51265;53.972;12.286;2023-04-06T11:12:36;3.40;;;2.53;;
64826;SDS011;51265;53.972;12.286;2023-04-06T11:15:03;3.40;;;1.80;;
64826;SDS011;51265;53.972;12.286;2023-04-06T11:17:36;6.78;;;2.00;;
64826;SDS011;51265;53.972;12.286;2023-04-06T11:20:03;3.15;;;1.95;;
64826;SDS011;51265;53.972;12.286;2023-04-06T11:22:30;2.63;;;1.77;;
64826;SDS011;51265;53.972;12.286;2023-04-06T11:25:07;4.15;;;1.88;;
64826;SDS011;51265;53.972;12.286;2023-04-06T11:27:34;4.47;;;2.90;;
64826;SDS011;51265;53.972;12.286;2023-04-06T11:30:02;5.78;;;2.90;;
64826;SDS011;51265;53.972;12.286;2023-04-06T11:32:29;5.97;;;2.75;;
64826;SDS011;51265;53.972;12.286;2023-04-06T11:34:57;5.13;;;2.22;;
64826;SDS011;51265;53.972;12.286;2023-04-06T11:37:27;3.80;;;2.55;;
64826;SDS011;51265;53.972;12.286;2023-04-06T11:39:55;3.95;;;2.25;;
64826;SDS011;51265;53.972;12.286;2023-04-06T11:42:23;3.63;;;2.60;;
64826;SDS011;51265;53.972;12.286;2023-04-06T11:44:55;4.97;;;3.17;;
64826;SDS011;51265;53.972;12.286;2023-04-06T11:47:29;4.13;;;2.38;;
64826;SDS011;51265;53.972;12.286;2023-04-06T11:50:04;4.32;;;2.47;;
64826;SDS011;51265;53.972;12.286;2023-04-06T11:52:35;4.03;;;2.17;;
64826;SDS011;51265;53.972;12.286;2023-04-06T11:55:12;3.85;;;2.40;;
64826;SDS011;51265;53.972;12.286;2023-04-06T11:57:40;4.95;;;2.58;;
64826;SDS011;51265;53.972;12.286;2023-04-06T12:00:08;3.88;;;2.42;;
64826;SDS011;51265;53.972;12.286;2023-04-06T12:02:36;4.45;;;2.70;;
64826;SDS011;51265;53.972;12.286;2023-04-06T12:05:03;3.40;;;2.60;;
64826;SDS011;51265;53.972;12.286;2023-04-06T12:07:31;5.60;;;2.47;;
64826;SDS011;51265;53.972;12.286;2023-04-06T12:09:58;4.28;;;2.67;;
64826;SDS011;51265;53.972;12.286;2023-04-06T12:12:26;37.33;;;3.50;;
64826;SDS011;51265;53.972;12.286;2023-04-06T12:14:53;13.98;;;2.85;;
64826;SDS011;51265;53.972;12.286;2023-04-06T12:17:19;5.10;;;2.60;;
64826;SDS011;51265;53.972;12.286;2023-04-06T12:19:46;3.83;;;2.67;;
64826;SDS011;51265;53.972;12.286;2023-04-06T12:22:12;2.55;;;1.95;;
64826;SDS011;51265;53.972;12.286;2023-04-06T12:24:39;4.70;;;2.22;;
64826;SDS011;51265;53.972;12.286;2023-04-06T12:27:05;4.15;;;2.67;;
64826;SDS011;51265;53.972;12.286;2023-04-06T12:29:32;11.00;;;2.47;;
64826;SDS011;51265;53.972;12.286;2023-04-06T12:31:59;7.05;;;2.22;;
64826;SDS011;51265;53.972;12.286;2023-04-06T12:34:27;4.10;;;2.50;;
64826;SDS011;51265;53.972;12.286;2023-04-06T12:36:53;4.93;;;2.28;;
64826;SDS011;51265;53.972;12.286;2023-04-06T12:39:20;3.97;;;2.08;;
64826;SDS011;51265;53.972;12.286;2023-04-06T12:41:47;7.40;;;2.22;;
64826;SDS011;51265;53.972;12.286;2023-04-06T12:44:13;37.33;;;3.40;;
64826;SDS011;51265;53.972;12.286;2023-04-06T12:46:40;4.20;;;2.28;;
64826;SDS011;51265;53.972;12.286;2023-04-06T12:49:14;12.88;;;2.70;;
64826;SDS011;51265;53.972;12.286;2023-04-06T12:51:43;7.82;;;2.53;;
64826;SDS011;51265;53.972;12.286;2023-04-06T12:54:09;4.45;;;2.22;;
64826;SDS011;51265;53.972;12.286;2023-04-06T12:56:36;5.57;;;2.28;;
64826;SDS011;51265;53.972;12.286;2023-04-06T12:59:03;2.72;;;2.10;;
64826;SDS011;51265;53.972;12.286;2023-04-06T13:01:30;4.53;;;2.13;;
64826;SDS011;51265;53.972;12.286;2023-04-06T13:03:56;3.53;;;2.22;;
64826;SDS011;51265;53.972;12.286;2023-04-06T13:06:23;2.80;;;1.95;;
64826;SDS011;51265;53.972;12.286;2023-04-06T13:08:53;2.95;;;1.77;;
64826;SDS011;51265;53.972;12.286;2023-04-06T13:11:19;2.47;;;1.95;;
64826;SDS011;51265;53.972;12.286;2023-04-06T13:13:49;4.32;;;1.80;;
64826;SDS011;51265;53.972;12.286;2023-04-06T13:16:15;14.98;;;2.25;;
64826;SDS011;51265;53.972;12.286;2023-04-06T13:18:41;16.42;;;2.67;;
64826;SDS011;51265;53.972;12.286;2023-04-06T13:21:08;3.17;;;1.83;;
64826;SDS011;51265;53.972;12.286;2023-04-06T13:23:34;2.65;;;1.65;;
64826;SDS011;51265;53.972;12.286;2023-04-06T13:26:04;3.45;;;2.03;;
64826;SDS011;51265;53.972;12.286;2023-04-06T13:28:33;4.35;;;2.15;;
64826;SDS011;51265;53.972;12.286;2023-04-06T13:31:01;6.28;;;2.03;;
64826;SDS011;51265;53.972;12.286;2023-04-06T13:33:28;2.60;;;1.50;;
64826;SDS011;51265;53.972;12.286;2023-04-06T13:35:56;4.70;;;1.95;;
64826;SDS011;51265;53.972;12.286;2023-04-06T13:38:22;3.40;;;1.85;;
64826;SDS011;51265;53.972;12.286;2023-04-06T13:40:50;2.88;;;1.90;;
64826;SDS011;51265;53.972;12.286;2023-04-06T13:43:17;5.85;;;1.60;;
64826;SDS011;51265;53.972;12.286;2023-04-06T13:45:50;2.90;;;1.75;;
64826;SDS011;51265;53.972;12.286;2023-04-06T13:48:18;4.93;;;1.75;;
64826;SDS011;51265;53.972;12.286;2023-04-06T13:50:44;16.48;;;2.65;;
64826;SDS011;51265;53.972;12.286;2023-04-06T13:53:14;80.07;;;4.65;;
64826;SDS011;51265;53.972;12.286;2023-04-06T13:55:40;7.18;;;1.83;;
64826;SDS011;51265;53.972;12.286;2023-04-06T13:58:06;2.20;;;1.52;;
64826;SDS011;51265;53.972;12.286;2023-04-06T14:00:33;3.42;;;1.40;;
64826;SDS011;51265;53.972;12.286;2023-04-06T14:03:00;3.53;;;1.60;;
64826;SDS011;51265;53.972;12.286;2023-04-06T14:05:30;2.80;;;1.45;;
64826;SDS011;51265;53.972;12.286;2023-04-06T14:07:59;3.60;;;1.60;;
64826;SDS011;51265;53.972;12.286;2023-04-06T14:10:26;2.30;;;1.70;;
64826;SDS011;51265;53.972;12.286;2023-04-06T14:12:53;3.50;;;1.80;;
64826;SDS011;51265;53.972;12.286;2023-04-06T14:15:19;2.65;;;1.20;;
64826;SDS011;51265;53.972;12.286;2023-04-06T14:17:59;6.38;;;1.50;;
64826;SDS011;51265;53.972;12.286;2023-04-06T14:20:26;2.20;;;1.10;;
64826;SDS011;51265;53.972;12.286;2023-04-06T14:22:53;2.58;;;1.52;;
64826;SDS011;51265;53.972;12.286;2023-04-06T14:25:20;1.90;;;1.38;;
64826;SDS011;51265;53.972;12.286;2023-04-06T14:27:47;3.40;;;1.20;;
64826;SDS011;51265;53.972;12.286;2023-04-06T14:30:14;4.13;;;1.40;;
64826;SDS011;51265;53.972;12.286;2023-04-06T14:32:41;7.57;;;1.33;;
64826;SDS011;51265;53.972;12.286;2023-04-06T14:35:07;2.03;;;1.30;;
64826;SDS011;51265;53.972;12.286;2023-04-06T14:37:34;2.05;;;1.10;;
64826;SDS011;51265;53.972;12.286;2023-04-06T14:40:01;2.63;;;1.20;;
64826;SDS011;51265;53.972;12.286;2023-04-06T14:42:28;4.07;;;1.30;;
64826;SDS011;51265;53.972;12.286;2023-04-06T14:44:55;2.63;;;1.50;;